Time;durP1;ratioP1;P1;durP2;ratioP2;P2;SDS_P1;SDS_P2;PMS_P1;PMS_P2;Temp;Humidity;BMP_temperature;BMP_pressure;BME280_temperature;BME280_humidity;BME280_pressure;Samples;Min_cycle;Max_cycle;Signal;HPM_P1;HPM_P2
2023/08/23 00:01:50;;;;;;;8.15;3.00;;;;;;;15.55;nan;102015.59;5019436;28;20432;-73
2023/08/23 00:04:16;;;;;;;5.22;2.90;;;;;;;15.40;nan;101981.81;5018743;28;20033;-73
2023/08/23 00:06:41;;;;;;;6.05;3.38;;;;;;;15.60;nan;102013.72;5024222;28;20030;-73
2023/08/23 00:09:06;;;;;;;4.68;2.50;;;;;;;15.58;nan;101994.50;5017638;28;20111;-73
2023/08/23 00:11:32;;;;;;;5.70;2.83;;;;;;;15.55;nan;102012.13;5024422;28;20021;-73
2023/08/23 00:13:57;;;;;;;6.03;3.10;;;;;;;15.50;nan;102011.34;5009192;28;20095;-73
2023/08/23 00:16:22;;;;;;;7.40;3.33;;;;;;;15.41;nan;101996.69;5020938;28;20520;-73
2023/08/23 00:18:50;;;;;;;4.10;3.65;;;;;;;15.40;nan;101994.94;5014430;28;20034;-73
2023/08/23 00:21:15;;;;;;;3.42;2.85;;;;;;;15.42;nan;102001.03;5022535;28;20058;-73
2023/08/23 00:23:41;;;;;;;4.47;3.10;;;;;;;15.41;nan;102004.59;5015736;28;20061;-73
2023/08/23 00:26:06;;;;;;;5.03;3.70;;;;;;;15.36;nan;102001.19;5018150;28;20054;-73
2023/08/23 00:28:32;;;;;;;6.45;3.33;;;;;;;15.28;nan;102003.16;5025106;28;20040;-73
2023/08/23 00:30:57;;;;;;;7.25;3.85;;;;;;;15.21;nan;101997.19;5016131;28;20025;-73
2023/08/23 00:33:22;;;;;;;5.90;3.90;;;;;;;15.10;nan;101986.06;5021447;28;20492;-73
2023/08/23 00:35:48;;;;;;;7.32;3.50;;;;;;;15.19;nan;101991.97;5022437;28;20041;-73
2023/08/23 00:38:13;;;;;;;5.43;3.70;;;;;;;15.16;nan;101992.03;5020119;28;20040;-73
2023/08/23 00:40:38;;;;;;;5.07;3.60;;;;;;;15.12;nan;101984.28;5019415;28;20157;-73
2023/08/23 00:43:07;;;;;;;5.43;3.50;;;;;;;15.09;nan;101976.47;5019640;28;20026;-73
2023/08/23 00:45:35;;;;;;;8.90;3.47;;;;;;;15.08;nan;101978.25;5016729;28;20482;-73
2023/08/23 00:48:01;;;;;;;6.28;3.03;;;;;;;15.07;nan;101968.63;5022734;28;20133;-73
2023/08/23 00:50:26;;;;;;;5.15;3.35;;;;;;;15.04;nan;101975.72;5025046;28;20871;-73
2023/08/23 00:52:51;;;;;;;5.90;3.30;;;;;;;14.98;nan;101976.75;5026122;28;20033;-73
2023/08/23 00:55:17;;;;;;;8.23;3.10;;;;;;;14.94;nan;101980.31;5019857;28;20045;-73
2023/08/23 00:57:42;;;;;;;6.97;3.67;;;;;;;14.90;nan;101981.28;5026149;28;20018;-73
2023/08/23 01:00:08;;;;;;;4.72;3.40;;;;;;;14.89;nan;101976.94;5024972;28;20053;-73
2023/08/23 01:02:35;;;;;;;6.82;3.47;;;;;;;14.93;nan;101975.97;5021121;28;20013;-73
2023/08/23 01:05:00;;;;;;;7.47;3.67;;;;;;;14.92;nan;101972.50;5025966;28;20084;-73
2023/08/23 01:07:49;;;;;;;4.10;2.97;;;;;;;14.90;nan;101971.66;5024448;28;20351;-73
2023/08/23 01:10:34;;;;;;;5.22;3.15;;;;;;;14.79;nan;101975.44;5025476;28;20038;-73
2023/08/23 01:13:09;;;;;;;3.38;3.00;;;;;;;14.66;nan;101966.97;5015469;28;20021;-73
2023/08/23 01:15:35;;;;;;;5.45;3.50;;;;;;;14.68;nan;101979.19;5024761;28;20026;-73
2023/08/23 01:18:02;;;;;;;5.32;3.30;;;;;;;14.61;nan;101974.94;5026564;28;20079;-73
2023/08/23 01:20:28;;;;;;;8.38;3.83;;;;;;;14.67;nan;101980.06;5022999;28;20444;-73
2023/08/23 01:23:12;;;;;;;6.43;3.90;;;;;;;14.65;nan;101971.38;5026280;28;20036;-73
2023/08/23 01:25:42;;;;;;;5.95;3.63;;;;;;;14.63;nan;101975.78;5016296;28;20025;-73
2023/08/23 01:28:08;;;;;;;7.35;3.70;;;;;;;14.51;nan;101963.78;5016662;28;20045;-73
2023/08/23 01:30:34;;;;;;;5.82;3.15;;;;;;;14.55;nan;101988.22;5021613;28;20029;-74
2023/08/23 01:33:10;;;;;;;8.93;3.40;;;;;;;14.49;nan;101988.31;5024690;28;20385;-74
2023/08/23 01:35:59;;;;;;;6.80;3.80;;;;;;;14.47;nan;101979.59;5020254;28;20100;-74
2023/08/23 01:38:26;;;;;;;9.82;3.92;;;;;;;14.46;nan;101977.88;5016357;28;20052;-74
2023/08/23 01:40:53;;;;;;;8.40;4.05;;;;;;;14.46;nan;101976.13;5021958;28;20100;-74
2023/08/23 01:43:18;;;;;;;7.43;3.88;;;;;;;14.49;nan;101967.31;5025321;28;20087;-74
2023/08/23 01:45:43;;;;;;;11.63;4.45;;;;;;;14.49;nan;101962.94;5025755;28;20101;-73
2023/08/23 01:48:09;;;;;;;8.82;4.50;;;;;;;14.49;nan;101957.69;5023488;28;20034;-74
2023/08/23 01:50:34;;;;;;;7.60;4.97;;;;;;;14.50;nan;101961.16;5023996;28;20044;-73
2023/08/23 01:52:59;;;;;;;10.10;6.60;;;;;;;14.52;nan;101965.53;5024748;28;20065;-73
2023/08/23 01:55:25;;;;;;;14.68;9.98;;;;;;;14.51;nan;101955.06;5023550;28;20044;-74
2023/08/23 01:57:51;;;;;;;15.13;11.18;;;;;;;14.47;nan;101956.84;5025476;28;20018;-73
2023/08/23 02:00:16;;;;;;;20.17;18.05;;;;;;;14.42;nan;101966.59;5022809;28;20034;-74
2023/08/23 02:02:41;;;;;;;14.38;12.90;;;;;;;14.42;nan;101957.84;5027987;28;20021;-74
2023/08/23 02:05:07;;;;;;;16.35;10.32;;;;;;;14.41;nan;101956.97;5020791;28;20038;-73
2023/08/23 02:07:32;;;;;;;12.40;9.02;;;;;;;14.37;nan;101957.09;5023431;28;20120;-74
2023/08/23 02:09:57;;;;;;;11.85;8.88;;;;;;;14.30;nan;101966.84;5014588;28;20053;-73
2023/08/23 02:12:23;;;;;;;23.40;15.88;;;;;;;14.25;nan;101966.06;5029372;28;20057;-74
2023/08/23 02:14:48;;;;;;;19.15;13.90;;;;;;;14.23;nan;101966.13;5016203;28;20061;-73
2023/08/23 02:17:13;;;;;;;16.70;13.65;;;;;;;14.25;nan;101968.69;5020588;28;20452;-74
2023/08/23 02:19:39;;;;;;;23.33;16.17;;;;;;;14.19;nan;101969.72;5025688;28;20033;-73
2023/08/23 02:22:04;;;;;;;32.67;25.83;;;;;;;14.19;nan;101977.56;5025974;28;20033;-73
2023/08/23 02:24:30;;;;;;;29.65;24.60;;;;;;;14.20;nan;101971.41;5023525;28;20120;-73
2023/08/23 02:26:55;;;;;;;31.77;28.50;;;;;;;14.15;nan;101967.16;5017193;28;20079;-73
2023/08/23 02:29:20;;;;;;;29.00;25.08;;;;;;;14.11;nan;101962.88;5013996;28;20030;-74
2023/08/23 02:31:46;;;;;;;23.50;17.35;;;;;;;14.09;nan;101964.66;5028036;28;20374;-73
2023/08/23 02:34:11;;;;;;;16.15;8.90;;;;;;;14.03;nan;101958.66;5021463;28;20105;-74
2023/08/23 02:36:36;;;;;;;12.35;7.93;;;;;;;13.94;nan;101956.22;5025771;28;20622;-73
2023/08/23 02:39:02;;;;;;;14.30;7.90;;;;;;;13.95;nan;101959.69;5021124;28;20025;-73
2023/08/23 02:41:28;;;;;;;12.25;6.80;;;;;;;13.96;nan;101966.66;5023119;28;20386;-73
2023/08/23 02:43:53;;;;;;;14.18;7.45;;;;;;;13.82;nan;101957.31;5022943;28;20061;-74
2023/08/23 02:46:18;;;;;;;15.05;6.82;;;;;;;13.90;nan;101958.94;5020600;28;20026;-74
2023/08/23 02:48:44;;;;;;;13.80;6.70;;;;;;;13.93;nan;101966.72;5017958;28;20072;-73
2023/08/23 02:51:09;;;;;;;13.45;8.35;;;;;;;13.87;nan;101959.00;5014762;28;20363;-74
2023/08/23 02:53:34;;;;;;;13.38;9.52;;;;;;;13.89;nan;101962.44;5021226;28;20116;-74
2023/08/23 02:56:00;;;;;;;14.05;8.50;;;;;;;13.88;nan;101951.09;5015549;28;20378;-74
2023/08/23 02:58:25;;;;;;;13.10;8.93;;;;;;;13.86;nan;101958.09;5021610;28;20025;-73
2023/08/23 03:00:50;;;;;;;13.50;8.57;;;;;;;13.83;nan;101950.28;5019803;28;20115;-74
2023/08/23 03:03:15;;;;;;;10.93;8.73;;;;;;;13.79;nan;101953.88;5014404;28;20034;-73
2023/08/23 03:05:49;;;;;;;11.38;9.50;;;;;;;13.70;nan;101949.69;5019923;28;20049;-73
2023/08/23 03:08:14;;;;;;;;;;;;;;;13.69;nan;101937.47;5020551;28;20048;-73
2023/08/23 03:10:39;;;;;;;15.87;11.97;;;;;;;13.68;nan;101951.47;5022583;28;20380;-73
2023/08/23 03:13:05;;;;;;;16.88;12.43;;;;;;;13.66;nan;101950.63;5022320;28;20303;-74
2023/08/23 03:15:30;;;;;;;19.35;12.95;;;;;;;13.66;nan;101947.16;5020787;28;20034;-74
2023/08/23 03:17:55;;;;;;;16.42;13.77;;;;;;;13.62;nan;101946.34;5026998;28;20564;-73
2023/08/23 03:20:20;;;;;;;17.63;13.32;;;;;;;13.60;nan;101942.88;5018877;28;20045;-73
2023/08/23 03:22:46;;;;;;;20.55;14.23;;;;;;;13.60;nan;101945.50;5024099;28;20036;-74
2023/08/23 03:25:11;;;;;;;17.60;12.20;;;;;;;13.60;nan;101942.88;5019358;28;20018;-73
2023/08/23 03:27:36;;;;;;;14.25;11.75;;;;;;;13.53;nan;101936.03;5016115;28;20044;-73
2023/08/23 03:30:02;;;;;;;13.38;11.05;;;;;;;13.59;nan;101933.28;5023022;28;20032;-74
2023/08/23 03:32:27;;;;;;;13.13;10.27;;;;;;;13.55;nan;101929.00;5017915;28;20041;-74
2023/08/23 03:34:52;;;;;;;17.30;9.68;;;;;;;13.54;nan;101940.41;5017535;28;20428;-73
2023/08/23 03:37:18;;;;;;;15.55;9.80;;;;;;;13.49;nan;101950.94;4987783;28;1081215;-73
2023/08/23 03:39:44;;;;;;;14.45;8.88;;;;;;;13.42;nan;101951.94;5018578;28;20120;-74
2023/08/23 03:42:09;;;;;;;16.27;8.20;;;;;;;13.35;nan;101942.47;5026823;28;20034;-74
2023/08/23 03:44:34;;;;;;;12.68;7.47;;;;;;;13.42;nan;101956.31;5012527;28;20068;-73
2023/08/23 03:46:59;;;;;;;14.98;7.15;;;;;;;13.45;nan;101944.03;5025688;28;20029;-74
2023/08/23 03:49:25;;;;;;;10.57;6.35;;;;;;;13.48;nan;101936.13;5019601;28;20022;-73
2023/08/23 03:51:50;;;;;;;12.07;6.45;;;;;;;13.50;nan;101936.94;5025955;28;20476;-73
2023/08/23 03:54:19;;;;;;;13.02;5.90;;;;;;;13.53;nan;101936.03;5019843;28;20051;-74
2023/08/23 03:56:44;;;;;;;11.60;5.63;;;;;;;13.55;nan;101940.34;5017037;28;20112;-73
2023/08/23 03:59:09;;;;;;;8.82;5.53;;;;;;;13.53;nan;101944.75;5020784;28;20517;-73
2023/08/23 04:01:34;;;;;;;12.65;5.70;;;;;;;13.55;nan;101955.22;5023066;28;20022;-73
2023/08/23 04:04:00;;;;;;;11.30;5.30;;;;;;;13.59;nan;101944.63;5023799;28;20021;-74
2023/08/23 04:06:25;;;;;;;13.65;5.80;;;;;;;13.67;nan;101944.50;5022184;28;20762;-74
2023/08/23 04:08:50;;;;;;;12.88;6.05;;;;;;;13.69;nan;101947.09;5023215;28;20404;-74
2023/08/23 04:11:16;;;;;;;9.93;5.20;;;;;;;13.73;nan;101943.50;5018607;28;20393;-74
2023/08/23 04:13:41;;;;;;;12.35;5.10;;;;;;;13.66;nan;101942.75;5023548;28;20037;-73
2023/08/23 04:16:06;;;;;;;12.82;5.32;;;;;;;13.47;nan;101933.50;5021910;28;20033;-74
2023/08/23 04:18:31;;;;;;;8.52;4.95;;;;;;;13.44;nan;101946.66;5022434;28;20492;-73
2023/08/23 04:20:59;;;;;;;11.77;5.10;;;;;;;13.45;nan;101951.88;5022306;28;20419;-73
2023/08/23 04:23:24;;;;;;;7.95;4.72;;;;;;;13.46;nan;101952.75;5022564;28;20026;-74
2023/08/23 04:25:49;;;;;;;11.20;4.82;;;;;;;13.49;nan;101950.06;5021030;28;20458;-73
2023/08/23 04:28:15;;;;;;;10.68;5.03;;;;;;;13.48;nan;101945.75;5020486;28;20035;-74
2023/08/23 04:30:42;;;;;;;10.18;4.68;;;;;;;13.43;nan;101950.19;5014659;28;20481;-73
2023/08/23 04:33:08;;;;;;;10.88;5.28;;;;;;;13.41;nan;101950.22;5019373;28;20388;-73
2023/08/23 04:35:33;;;;;;;10.23;5.07;;;;;;;13.45;nan;101945.78;5019263;28;20038;-74
2023/08/23 04:37:58;;;;;;;7.68;4.65;;;;;;;13.52;nan;101956.13;5019238;28;20037;-73
2023/08/23 04:40:24;;;;;;;8.00;5.03;;;;;;;13.59;nan;101962.13;5017425;28;20041;-74
2023/08/23 04:42:49;;;;;;;10.07;4.85;;;;;;;13.68;nan;101955.84;5014448;28;20030;-73
2023/08/23 04:45:14;;;;;;;12.40;4.72;;;;;;;13.75;nan;101954.84;5016682;28;20108;-74
2023/08/23 04:47:40;;;;;;;10.15;5.00;;;;;;;13.68;nan;101948.00;5020311;28;20039;-74
2023/08/23 04:50:06;;;;;;;7.00;4.20;;;;;;;13.80;nan;101960.88;5020577;28;20030;-74
2023/08/23 04:52:31;;;;;;;9.30;5.05;;;;;;;13.84;nan;101961.66;5025575;28;20362;-73
2023/08/23 04:54:57;;;;;;;12.55;4.85;;;;;;;13.84;nan;101951.19;5015089;28;20030;-73
2023/08/23 04:57:22;;;;;;;7.93;4.85;;;;;;;13.82;nan;101951.19;5025888;28;20033;-74
2023/08/23 04:59:47;;;;;;;9.70;5.18;;;;;;;13.84;nan;101949.44;5019778;28;20026;-74
2023/08/23 05:02:12;;;;;;;13.48;5.05;;;;;;;13.89;nan;101952.81;5026927;28;20029;-73
2023/08/23 05:04:38;;;;;;;10.27;4.93;;;;;;;14.06;nan;101955.13;5019102;28;20046;-73
2023/08/23 05:07:04;;;;;;;10.50;4.70;;;;;;;14.14;nan;101955.81;5025150;28;20547;-74
2023/08/23 05:09:30;;;;;;;12.13;4.93;;;;;;;14.14;nan;101945.31;5020805;28;20033;-74
2023/08/23 05:11:56;;;;;;;11.15;4.28;;;;;;;14.20;nan;101934.72;5022671;28;20465;-74
2023/08/23 05:14:21;;;;;;;8.98;5.07;;;;;;;14.36;nan;101945.75;5022079;28;20084;-74
2023/08/23 05:16:46;;;;;;;12.30;5.35;;;;;;;14.43;nan;101946.47;5013128;28;20021;-74
2023/08/23 05:19:11;;;;;;;9.05;4.50;;;;;;;14.39;nan;101935.19;5016874;28;20080;-74
2023/08/23 05:21:37;;;;;;;12.57;4.65;;;;;;;14.48;nan;101934.94;5023048;28;20038;-74
2023/08/23 05:24:02;;;;;;;10.63;4.90;;;;;;;14.49;nan;101941.94;5017440;28;20068;-74
2023/08/23 05:26:28;;;;;;;8.88;5.05;;;;;;;14.49;nan;101938.47;5014726;28;20481;-74
2023/08/23 05:28:53;;;;;;;9.00;4.50;;;;;;;14.45;nan;101934.16;5021382;28;20033;-74
2023/08/23 05:31:19;;;;;;;7.53;4.80;;;;;;;14.44;nan;101940.31;5014300;28;20022;-73
2023/08/23 05:33:45;;;;;;;9.15;4.88;;;;;;;14.28;nan;101927.53;5025110;28;20388;-74
2023/08/23 05:36:10;;;;;;;8.07;5.07;;;;;;;14.32;nan;101935.31;5024264;28;20038;-74
2023/08/23 05:38:35;;;;;;;8.95;5.10;;;;;;;14.32;nan;101943.19;5026159;28;20116;-74
2023/08/23 05:41:01;;;;;;;10.25;5.20;;;;;;;14.22;nan;101932.03;5023879;28;20026;-74
2023/08/23 05:43:27;;;;;;;7.82;4.90;;;;;;;14.28;nan;101951.13;5025530;28;20120;-73
2023/08/23 05:45:54;;;;;;;7.03;4.53;;;;;;;14.16;nan;101935.69;5024665;28;20112;-73
2023/08/23 05:48:20;;;;;;;7.53;5.30;;;;;;;14.17;nan;101940.00;5020025;28;20021;-73
2023/08/23 05:50:46;;;;;;;8.85;4.80;;;;;;;14.25;nan;101947.72;5026079;28;20029;-73
2023/08/23 05:53:18;;;;;;;7.47;4.53;;;;;;;14.31;nan;101962.47;5024221;28;20036;-74
2023/08/23 05:55:48;;;;;;;10.32;4.82;;;;;;;14.38;nan;101949.16;5025053;28;20029;-74
2023/08/23 05:58:18;;;;;;;7.40;5.30;;;;;;;14.47;nan;101953.38;5022040;28;20030;-74
2023/08/23 06:00:44;;;;;;;6.82;5.28;;;;;;;14.54;nan;101957.59;5019374;28;20030;-74
2023/08/23 06:03:09;;;;;;;6.90;5.43;;;;;;;14.55;nan;101959.34;5016598;28;20397;-74
2023/08/23 06:05:34;;;;;;;8.32;5.55;;;;;;;14.67;nan;101968.69;5012348;28;20030;-73
2023/08/23 06:08:02;;;;;;;9.02;5.60;;;;;;;14.66;nan;101959.97;5024980;28;20493;-74
2023/08/23 06:10:27;;;;;;;8.50;6.88;;;;;;;14.74;nan;101967.66;5016661;28;20597;-74
2023/08/23 06:12:52;;;;;;;9.45;7.57;;;;;;;14.84;nan;101963.91;5031342;28;20033;-73
2023/08/23 06:15:18;;;;;;;11.57;7.15;;;;;;;14.87;nan;101952.47;5021343;28;20049;-74
2023/08/23 06:17:43;;;;;;;8.88;7.55;;;;;;;15.03;nan;101974.00;5030586;28;20045;-74
2023/08/23 06:20:09;;;;;;;12.23;7.50;;;;;;;15.10;nan;101970.31;5022000;28;20075;-74
2023/08/23 06:22:34;;;;;;;11.45;7.38;;;;;;;15.12;nan;101955.38;5028902;28;20528;-74
2023/08/23 06:24:59;;;;;;;11.45;7.68;;;;;;;15.14;nan;101954.47;5017554;28;20025;-74
2023/08/23 06:27:25;;;;;;;11.65;9.30;;;;;;;15.31;nan;101968.94;5014611;28;20370;-73
2023/08/23 06:29:50;;;;;;;12.60;8.75;;;;;;;15.41;nan;101965.16;5009669;28;20018;-75
2023/08/23 06:32:15;;;;;;;14.82;10.10;;;;;;;15.53;nan;101966.59;5018940;28;20485;-72
2023/08/23 06:34:41;;;;;;;12.60;8.90;;;;;;;15.65;nan;101968.91;5022259;28;20022;-73
2023/08/23 06:37:06;;;;;;;12.48;9.63;;;;;;;15.74;nan;101959.97;5022955;28;20092;-73
2023/08/23 06:39:31;;;;;;;16.40;10.50;;;;;;;15.85;nan;101964.00;5015120;28;20104;-73
2023/08/23 06:41:57;;;;;;;11.25;8.32;;;;;;;15.60;nan;101911.22;5026126;28;21059;-73
2023/08/23 06:44:22;;;;;;;14.35;9.40;;;;;;;16.03;nan;101969.66;5015652;28;20022;-72
2023/08/23 06:46:47;;;;;;;13.82;10.18;;;;;;;16.07;nan;101961.63;5018903;28;20038;-73
2023/08/23 06:49:12;;;;;;;15.55;10.32;;;;;;;16.21;nan;101960.38;5025264;28;20037;-74
2023/08/23 06:51:38;;;;;;;17.00;10.45;;;;;;;16.34;nan;101967.84;5017265;28;20029;-75
2023/08/23 06:54:04;;;;;;;16.05;10.82;;;;;;;16.43;nan;101964.09;5022501;28;20071;-75
2023/08/23 06:56:29;;;;;;;18.45;10.45;;;;;;;16.46;nan;101964.00;5019656;28;20456;-76
2023/08/23 06:58:55;;;;;;;20.48;9.73;;;;;;;16.61;nan;101975.81;5009929;28;20052;-75
2023/08/23 07:01:21;;;;;;;17.60;10.90;;;;;;;16.72;nan;101980.78;5010714;28;20100;-74
2023/08/23 07:03:46;;;;;;;21.08;10.80;;;;;;;16.79;nan;101977.94;5011016;28;20050;-74
2023/08/23 07:06:13;;;;;;;16.48;10.50;;;;;;;16.83;nan;101973.44;5018661;28;20024;-74
2023/08/23 07:08:40;;;;;;;15.57;10.52;;;;;;;16.98;nan;101985.25;5022984;28;20473;-74
2023/08/23 07:11:05;;;;;;;11.70;8.98;;;;;;;17.03;nan;101986.81;5023772;28;20022;-74
2023/08/23 07:13:31;;;;;;;15.40;10.23;;;;;;;17.10;nan;101990.13;5023361;28;20409;-74
2023/08/23 07:15:56;;;;;;;12.02;8.13;;;;;;;17.14;nan;101983.84;5024604;28;20028;-74
2023/08/23 07:18:21;;;;;;;10.35;8.05;;;;;;;17.20;nan;101991.56;5023009;28;21459;-74
2023/08/23 07:20:46;;;;;;;12.18;9.40;;;;;;;17.29;nan;101993.88;5023579;28;20668;-74
2023/08/23 07:23:12;;;;;;;11.27;9.18;;;;;;;17.30;nan;101994.75;5026006;28;20036;-74
2023/08/23 07:25:37;;;;;;;17.33;10.40;;;;;;;17.41;nan;101997.88;5020714;28;20079;-74
2023/08/23 07:28:02;;;;;;;11.25;9.35;;;;;;;17.35;nan;101978.78;5023510;28;20030;-74
2023/08/23 07:30:28;;;;;;;11.90;9.50;;;;;;;17.61;nan;102002.47;5023106;28;20025;-74
2023/08/23 07:32:53;;;;;;;15.30;10.02;;;;;;;17.73;nan;102004.69;5022308;28;20088;-75
2023/08/23 07:35:19;;;;;;;12.68;8.77;;;;;;;17.78;nan;102002.78;5023385;28;20026;-75
2023/08/23 07:37:44;;;;;;;12.77;9.25;;;;;;;17.81;nan;102003.59;5022555;28;20117;-75
2023/08/23 07:40:09;;;;;;;14.52;9.60;;;;;;;17.89;nan;102005.06;5022931;28;20104;-74
2023/08/23 07:42:35;;;;;;;12.63;9.13;;;;;;;17.94;nan;102003.09;5024455;28;20399;-75
2023/08/23 07:45:00;;;;;;;12.55;8.43;;;;;;;17.97;nan;102008.25;5022094;28;20038;-75
2023/08/23 07:47:26;;;;;;;12.43;8.50;;;;;;;18.05;nan;102005.38;5024919;28;20128;-74
2023/08/23 07:49:51;;;;;;;14.32;8.80;;;;;;;18.24;nan;102009.03;5020494;28;20026;-74
2023/08/23 07:52:17;;;;;;;11.13;8.70;;;;;;;18.22;nan;101996.81;5027557;28;20033;-75
2023/08/23 07:54:42;;;;;;;10.43;8.10;;;;;;;18.41;nan;102012.81;5019804;28;20060;-75
2023/08/23 07:57:07;;;;;;;11.95;7.75;;;;;;;18.47;nan;102017.88;5027522;28;20473;-75
2023/08/23 07:59:33;;;;;;;11.15;7.82;;;;;;;18.49;nan;102001.06;5020203;28;20030;-74
2023/08/23 08:01:58;;;;;;;13.90;7.18;;;;;;;18.66;nan;102012.75;5026441;28;20361;-74
2023/08/23 08:04:23;;;;;;;12.45;8.68;;;;;;;18.70;nan;102007.31;5020861;28;20051;-74
2023/08/23 08:06:48;;;;;;;9.57;7.28;;;;;;;18.75;nan;101999.22;5025056;28;20117;-74
2023/08/23 08:09:14;;;;;;;8.88;7.03;;;;;;;18.74;nan;101984.31;5021917;28;20481;-74
2023/08/23 08:11:39;;;;;;;9.40;7.43;;;;;;;18.93;nan;102005.53;5023012;28;20037;-75
2023/08/23 08:14:04;;;;;;;9.27;7.38;;;;;;;19.04;nan;102007.78;5022515;28;20025;-74
2023/08/23 08:16:30;;;;;;;12.93;7.43;;;;;;;19.05;nan;101993.63;5022565;28;20029;-74
2023/08/23 08:18:55;;;;;;;12.18;7.60;;;;;;;19.21;nan;102004.44;5023359;28;20031;-74
2023/08/23 08:21:20;;;;;;;11.15;7.63;;;;;;;19.31;nan;102011.91;5022318;28;20038;-74
2023/08/23 08:23:47;;;;;;;7.88;6.97;;;;;;;19.30;nan;102007.56;5020762;28;20032;-74
2023/08/23 08:26:13;;;;;;;13.02;6.85;;;;;;;19.41;nan;102013.25;5021034;28;20025;-74
2023/08/23 08:28:42;;;;;;;10.30;6.68;;;;;;;19.50;nan;102011.16;5023398;28;20084;-74
2023/08/23 08:31:08;;;;;;;7.90;6.03;;;;;;;19.56;nan;102010.91;5023057;28;20030;-74
2023/08/23 08:33:33;;;;;;;6.47;4.88;;;;;;;19.64;nan;102009.66;5022522;28;20552;-74
2023/08/23 08:35:59;;;;;;;7.70;5.57;;;;;;;19.67;nan;102003.38;5020148;28;20030;-74
2023/08/23 08:38:24;;;;;;;6.38;5.43;;;;;;;19.72;nan;101993.47;5021583;28;20451;-74
2023/08/23 08:40:50;;;;;;;9.35;5.47;;;;;;;19.86;nan;102003.44;5021639;28;20064;-74
2023/08/23 08:43:17;;;;;;;9.23;5.20;;;;;;;19.96;nan;102001.25;5021982;28;20029;-74
2023/08/23 08:45:42;;;;;;;7.68;5.30;;;;;;;20.04;nan;101991.16;5022586;28;20120;-74
2023/08/23 08:48:08;;;;;;;6.57;4.85;;;;;;;20.15;nan;101999.50;5020594;28;20521;-74
2023/08/23 08:50:33;;;;;;;8.90;5.20;;;;;;;20.31;nan;101994.38;5022117;28;20030;-74
2023/08/23 08:53:00;;;;;;;10.40;6.05;;;;;;;20.37;nan;102004.66;5021960;28;20034;-74
2023/08/23 08:55:26;;;;;;;7.63;5.78;;;;;;;20.47;nan;101998.03;5022393;28;20045;-75
2023/08/23 08:57:53;;;;;;;6.95;5.43;;;;;;;20.60;nan;102001.00;5023010;28;20092;-74
2023/08/23 09:00:22;;;;;;;9.40;5.75;;;;;;;20.72;nan;101991.59;5021266;28;20030;-74
2023/08/23 09:02:51;;;;;;;9.10;7.32;;;;;;;20.75;nan;101991.44;5025145;28;20105;-74
2023/08/23 09:05:18;;;;;;;10.52;5.80;;;;;;;20.89;nan;101996.06;5019845;28;20026;-74
2023/08/23 09:07:43;;;;;;;13.45;6.30;;;;;;;21.06;nan;102006.75;5027954;28;20100;-75
2023/08/23 09:10:09;;;;;;;10.45;6.07;;;;;;;21.09;nan;101988.03;5023510;28;20457;-75
2023/08/23 09:12:35;;;;;;;10.68;6.32;;;;;;;21.12;nan;101997.59;5021225;28;20034;-75
2023/08/23 09:15:06;;;;;;;9.55;7.13;;;;;;;21.18;nan;101998.16;5020280;28;20072;-74
2023/08/23 09:17:33;;;;;;;13.98;7.00;;;;;;;21.27;nan;101992.41;5021354;28;20485;-75
2023/08/23 09:19:59;;;;;;;9.48;6.97;;;;;;;21.40;nan;101991.81;5022722;28;20546;-74
2023/08/23 09:22:24;;;;;;;9.90;7.68;;;;;;;21.54;nan;101991.09;5022672;28;20065;-75
2023/08/23 09:24:50;;;;;;;10.90;6.20;;;;;;;21.66;nan;101999.28;5018018;28;20041;-74
2023/08/23 09:27:16;;;;;;;9.30;6.80;;;;;;;21.84;nan;101999.25;5023447;28;20035;-74
2023/08/23 09:29:43;;;;;;;15.25;7.53;;;;;;;21.96;nan;101994.16;5024496;28;20061;-74
2023/08/23 09:32:08;;;;;;;12.15;7.05;;;;;;;22.00;nan;101996.66;5020890;28;20536;-74
2023/08/23 09:34:34;;;;;;;9.85;6.55;;;;;;;22.04;nan;102007.06;5022676;28;20152;-74
2023/08/23 09:37:08;;;;;;;13.90;8.85;;;;;;;22.02;nan;102000.09;5028621;28;20147;-74
2023/08/23 09:39:34;;;;;;;10.85;6.88;;;;;;;22.13;nan;102011.84;5016627;28;20603;-75
2023/08/23 09:42:05;;;;;;;12.85;6.88;;;;;;;22.22;nan;101999.91;5030481;28;20026;-75
2023/08/23 09:44:35;;;;;;;12.15;8.07;;;;;;;22.36;nan;101993.84;5022411;28;20029;-75
2023/08/23 09:47:02;;;;;;;8.80;6.88;;;;;;;22.49;nan;101994.88;5029798;28;20056;-75
2023/08/23 09:49:32;;;;;;;11.60;6.20;;;;;;;22.62;nan;101989.75;5021940;28;20037;-74
2023/08/23 09:52:00;;;;;;;9.48;6.32;;;;;;;22.70;nan;101986.69;5030272;28;20029;-74
2023/08/23 09:54:38;;;;;;;11.90;7.00;;;;;;;22.84;nan;101989.41;5013288;28;20497;-74
2023/08/23 09:57:04;;;;;;;11.32;7.40;;;;;;;22.92;nan;101992.47;5030678;28;20029;-75
2023/08/23 09:59:30;;;;;;;12.90;7.72;;;;;;;23.01;nan;102004.41;5013341;28;20060;-74
2023/08/23 10:01:55;;;;;;;12.10;7.15;;;;;;;23.03;nan;101992.75;5007967;28;20060;-74
2023/08/23 10:04:22;;;;;;;9.57;5.63;;;;;;;23.15;nan;102001.81;5016249;28;20172;-75
2023/08/23 10:06:48;;;;;;;11.15;7.97;;;;;;;23.24;nan;102003.09;5021073;28;20026;-75
2023/08/23 10:09:15;;;;;;;11.70;7.07;;;;;;;23.36;nan;101997.03;5016514;28;20026;-75
2023/08/23 10:11:42;;;;;;;10.13;7.40;;;;;;;23.48;nan;102001.66;5019702;28;20036;-74
2023/08/23 10:14:09;;;;;;;10.43;7.35;;;;;;;23.57;nan;101984.25;5022661;28;20033;-75
2023/08/23 10:16:35;;;;;;;9.85;6.32;;;;;;;23.67;nan;101990.72;5014073;28;20112;-73
2023/08/23 10:19:00;;;;;;;10.02;6.70;;;;;;;23.75;nan;101987.66;5012844;28;20103;-73
2023/08/23 10:21:27;;;;;;;8.68;5.72;;;;;;;23.98;nan;101997.75;5024064;28;20619;-72
2023/08/23 10:23:52;;;;;;;10.15;5.47;;;;;;;24.24;nan;101989.94;5017300;28;20026;-72
2023/08/23 10:26:19;;;;;;;11.00;6.05;;;;;;;24.40;nan;101985.34;5021151;28;20031;-73
2023/08/23 10:28:53;;;;;;;8.57;5.75;;;;;;;24.45;nan;101985.94;5011041;28;20160;-72
2023/08/23 10:31:28;;;;;;;7.30;5.97;;;;;;;24.34;nan;101972.41;5025296;28;20473;-73
2023/08/23 10:33:57;;;;;;;9.18;6.13;;;;;;;24.43;nan;101990.53;5015829;28;20026;-73
2023/08/23 10:36:28;;;;;;;9.60;6.55;;;;;;;24.37;nan;101984.69;5011355;28;20046;-73
2023/08/23 10:38:57;;;;;;;8.13;5.90;;;;;;;24.38;nan;101992.56;5020007;28;20059;-73
2023/08/23 10:41:24;;;;;;;9.98;5.00;;;;;;;24.41;nan;101986.22;5025437;28;20021;-74
2023/08/23 10:43:49;;;;;;;7.35;4.57;;;;;;;24.42;nan;101975.47;5014985;28;20026;-73
2023/08/23 10:46:21;;;;;;;6.80;4.68;;;;;;;24.51;nan;101977.53;5025456;28;20044;-73
2023/08/23 10:48:47;;;;;;;5.20;4.03;;;;;;;24.75;nan;101958.22;5015370;28;20105;-73
2023/08/23 10:51:14;;;;;;;8.05;4.85;;;;;;;24.92;nan;101974.00;5018010;28;20152;-73
2023/08/23 10:53:40;;;;;;;10.02;4.55;;;;;;;25.02;nan;101970.72;5023888;28;20029;-73
2023/08/23 10:56:10;;;;;;;5.53;4.53;;;;;;;25.14;nan;101970.75;5023254;28;20033;-73
2023/08/23 10:58:36;;;;;;;11.00;4.93;;;;;;;25.24;nan;101965.66;5023033;28;20017;-73
2023/08/23 11:01:02;;;;;;;7.65;4.10;;;;;;;25.28;nan;101964.53;5023061;28;20045;-73
2023/08/23 11:03:28;;;;;;;8.00;4.78;;;;;;;25.27;nan;101943.25;5016746;28;20067;-73
2023/08/23 11:05:55;;;;;;;8.95;4.93;;;;;;;25.11;nan;101930.91;5016023;28;20030;-74
2023/08/23 11:08:22;;;;;;;5.75;4.50;;;;;;;25.09;nan;101945.34;5019203;28;20489;-74
2023/08/23 11:10:47;;;;;;;9.20;4.35;;;;;;;24.99;nan;101943.28;5018486;28;20038;-73
2023/08/23 11:13:12;;;;;;;7.03;4.68;;;;;;;25.13;nan;101941.53;5016972;28;20031;-73
2023/08/23 11:15:38;;;;;;;7.53;4.03;;;;;;;25.27;nan;101933.44;5011198;28;20044;-73
2023/08/23 11:18:05;;;;;;;6.47;3.88;;;;;;;25.45;nan;101931.31;5018389;28;20454;-73
2023/08/23 11:20:30;;;;;;;8.30;6.35;;;;;;;25.63;nan;101942.53;5019156;28;20037;-74
2023/08/23 11:22:55;;;;;;;8.95;6.10;;;;;;;25.75;nan;101944.34;5014012;28;20079;-75
2023/08/23 11:25:21;;;;;;;8.05;5.95;;;;;;;25.85;nan;101940.09;5006953;28;20469;-73
2023/08/23 11:27:46;;;;;;;9.38;7.03;;;;;;;25.92;nan;101938.69;5020585;28;20446;-73
2023/08/23 11:30:11;;;;;;;9.35;7.13;;;;;;;26.00;nan;101932.81;5010782;28;20504;-74
2023/08/23 11:32:37;;;;;;;9.40;7.28;;;;;;;26.04;nan;101936.97;5016872;28;20030;-73